createdAt,value
2018-06-12T00:01:24.798Z,17.73
2018-06-12T00:03:52.617Z,17.00
2018-06-12T00:06:20.642Z,17.20
2018-06-12T00:08:48.691Z,15.63
2018-06-12T00:11:16.720Z,16.63
2018-06-12T00:13:44.760Z,17.27
2018-06-12T00:16:12.775Z,16.17
2018-06-12T00:18:40.807Z,16.90
2018-06-12T00:21:08.834Z,16.27
2018-06-12T00:23:36.665Z,16.20
2018-06-12T00:26:04.695Z,15.67
2018-06-12T00:28:32.723Z,16.27
2018-06-12T00:31:00.812Z,16.40
2018-06-12T00:33:28.848Z,19.13
2018-06-12T00:43:18.982Z,16.30
2018-06-12T00:45:46.797Z,16.13
2018-06-12T00:48:14.848Z,15.93
2018-06-12T00:50:42.874Z,16.77
2018-06-12T00:53:10.932Z,16.57
2018-06-12T00:55:38.971Z,16.10
2018-06-12T01:00:34.154Z,16.30
2018-06-12T01:03:02.195Z,19.67
2018-06-12T01:05:30.228Z,16.27
2018-06-12T01:07:58.243Z,17.70
2018-06-12T01:10:26.262Z,19.20
2018-06-12T01:12:54.291Z,15.97
2018-06-12T01:15:22.350Z,15.07
2018-06-12T01:17:50.386Z,15.10
2018-06-12T01:20:18.403Z,14.73
2018-06-12T01:25:13.788Z,14.53
2018-06-12T01:27:41.822Z,16.50
2018-06-12T01:30:09.863Z,16.23
2018-06-12T01:32:37.886Z,16.33
2018-06-12T01:35:05.934Z,15.97
2018-06-12T01:37:33.974Z,15.77
2018-06-12T01:40:02.019Z,21.80
2018-06-12T01:42:30.046Z,19.40
2018-06-12T01:44:58.091Z,16.77
2018-06-12T01:47:26.119Z,20.20
2018-06-12T01:49:54.179Z,17.33
2018-06-12T01:52:22.203Z,19.90
2018-06-12T01:54:50.246Z,19.47
2018-06-12T01:57:18.269Z,19.87
2018-06-12T01:59:46.318Z,19.83
2018-06-12T02:09:36.057Z,22.80
2018-06-12T02:19:26.210Z,24.35
2018-06-12T02:21:54.246Z,20.10
2018-06-12T02:34:11.526Z,22.70
2018-06-12T02:44:02.099Z,24.03
2018-06-12T02:46:30.128Z,23.73
2018-06-12T02:48:58.155Z,25.57
2018-06-12T02:51:26.183Z,26.93
2018-06-12T02:53:54.214Z,26.93
2018-06-12T02:56:22.289Z,25.33
2018-06-12T02:58:50.274Z,28.60
2018-06-12T03:01:18.311Z,28.23
2018-06-12T03:03:46.342Z,28.20
2018-06-12T03:06:14.370Z,32.37
2018-06-12T03:08:42.411Z,30.83
2018-06-12T03:11:10.221Z,32.63
2018-06-12T03:13:38.255Z,30.53
2018-06-12T03:21:01.191Z,29.93
2018-06-12T03:23:29.220Z,28.97
2018-06-12T03:25:59.430Z,33.37
2018-06-12T03:28:27.468Z,31.90
2018-06-12T03:30:55.506Z,36.27
2018-06-12T03:33:23.542Z,38.27
2018-06-12T03:35:51.566Z,36.33
2018-06-12T03:38:19.599Z,39.77
2018-06-12T03:43:14.982Z,37.53
2018-06-12T03:45:43.027Z,43.13
2018-06-12T03:48:11.060Z,50.30
2018-06-12T03:50:39.123Z,49.17
2018-06-12T03:53:07.163Z,45.77
2018-06-12T03:55:35.186Z,45.70
2018-06-12T03:58:03.710Z,50.17
2018-06-12T04:00:31.738Z,50.90
2018-06-12T04:02:59.775Z,49.83
2018-06-12T04:05:27.798Z,43.87
2018-06-12T04:07:55.841Z,45.00
2018-06-12T04:10:23.866Z,40.80
2018-06-12T04:12:51.907Z,40.03
2018-06-12T04:15:19.940Z,40.00
2018-06-12T04:17:48.011Z,40.83
2018-06-12T04:20:16.036Z,41.80
2018-06-12T04:22:44.063Z,40.53
2018-06-12T04:25:12.107Z,38.80
2018-06-12T04:27:40.134Z,40.40
2018-06-12T04:30:08.170Z,43.80
2018-06-12T04:32:35.981Z,44.43
2018-06-12T04:35:04.068Z,42.97
2018-06-12T04:37:32.040Z,43.53
2018-06-12T04:39:59.871Z,42.13
2018-06-12T04:47:23.450Z,45.60
2018-06-12T04:49:51.503Z,37.87
2018-06-12T04:52:19.532Z,36.03
2018-06-12T04:54:47.579Z,30.43
2018-06-12T04:57:15.614Z,31.97
2018-06-12T04:59:43.659Z,31.50
2018-06-12T05:02:11.699Z,30.27
2018-06-12T05:04:39.739Z,28.70
2018-06-12T05:07:07.771Z,29.47
2018-06-12T05:09:35.807Z,28.33
2018-06-12T05:12:03.847Z,30.67
2018-06-12T05:14:31.874Z,29.03
2018-06-12T05:16:59.907Z,31.67
2018-06-12T05:19:27.996Z,28.73
2018-06-12T05:21:56.036Z,29.80
2018-06-12T05:24:24.070Z,35.83
2018-06-12T05:26:52.111Z,33.80
2018-06-12T05:29:20.146Z,36.83
2018-06-12T05:31:48.170Z,33.63
2018-06-12T05:34:16.192Z,37.67
2018-06-12T05:36:44.219Z,35.60
2018-06-12T05:39:12.258Z,34.87
2018-06-12T05:41:40.527Z,33.83
2018-06-12T05:44:08.579Z,30.60
2018-06-12T05:46:36.607Z,32.60
2018-06-12T05:49:04.959Z,33.03
2018-06-12T05:51:33.002Z,30.37
2018-06-12T05:54:01.074Z,33.67
2018-06-12T05:56:29.098Z,35.77
2018-06-12T05:58:57.149Z,36.50
2018-06-12T06:03:52.551Z,32.53
2018-06-12T06:06:20.579Z,34.17
2018-06-12T06:08:48.615Z,34.00
2018-06-12T06:11:16.672Z,35.37
2018-06-12T06:13:44.739Z,35.07
2018-06-12T06:16:12.770Z,35.07
2018-06-12T06:18:40.799Z,35.30
2018-06-12T06:21:08.838Z,32.77
2018-06-12T06:23:36.871Z,39.60
2018-06-12T06:26:04.927Z,38.10
2018-06-12T06:28:32.963Z,38.07
2018-06-12T06:31:00.991Z,37.27
2018-06-12T06:38:23.561Z,36.03
2018-06-12T06:48:13.704Z,32.35
2018-06-12T06:50:41.755Z,32.47
2018-06-12T06:55:37.163Z,33.20
2018-06-12T07:00:32.639Z,30.13
2018-06-12T07:05:28.031Z,32.30
2018-06-12T07:07:56.071Z,31.80
2018-06-12T07:10:24.107Z,33.40
2018-06-12T07:12:52.136Z,33.40
2018-06-12T07:15:20.170Z,31.37
2018-06-12T07:17:48.235Z,31.47
2018-06-12T07:20:27.926Z,31.05
2018-06-12T07:25:23.364Z,32.57
2018-06-12T07:27:51.398Z,34.93
2018-06-12T07:30:19.419Z,29.47
2018-06-12T07:32:47.455Z,32.20
2018-06-12T07:35:15.478Z,31.13
2018-06-12T07:37:43.543Z,31.83
2018-06-12T07:40:11.561Z,32.67
2018-06-12T07:45:06.743Z,34.07
2018-06-12T07:52:29.523Z,28.53
2018-06-12T07:54:57.572Z,29.77
2018-06-12T08:04:47.866Z,31.97
2018-06-12T08:07:15.902Z,30.03
2018-06-12T08:09:43.941Z,32.40
2018-06-12T08:12:11.986Z,30.30
2018-06-12T08:14:40.028Z,29.60
2018-06-12T08:17:08.046Z,24.37
2018-06-12T08:19:36.071Z,23.50
2018-06-12T08:22:04.090Z,22.30
2018-06-12T08:24:32.123Z,24.47
2018-06-12T08:27:00.138Z,26.00
2018-06-12T08:29:28.162Z,26.90
2018-06-12T08:36:50.930Z,22.50
2018-06-12T08:39:18.980Z,21.63
2018-06-12T08:41:47.014Z,19.60
2018-06-12T08:44:14.842Z,20.43
2018-06-12T08:46:42.871Z,18.17
2018-06-12T08:49:10.950Z,18.60
2018-06-12T08:51:38.939Z,18.20
2018-06-12T08:54:06.969Z,17.30
2018-06-12T08:56:35.008Z,17.13
2018-06-12T08:59:03.055Z,18.13
2018-06-12T09:01:31.106Z,17.07
2018-06-12T09:03:59.118Z,16.23
2018-06-12T09:06:27.147Z,18.20
2018-06-12T09:08:55.183Z,15.20
2018-06-12T09:11:23.222Z,15.60
2018-06-12T09:13:51.266Z,14.27
2018-06-12T09:16:19.294Z,14.50
2018-06-12T09:18:47.314Z,13.33
2018-06-12T09:21:15.352Z,13.67
2018-06-12T09:23:43.370Z,13.23
2018-06-12T09:26:11.398Z,13.50
2018-06-12T09:28:39.426Z,12.70
2018-06-12T09:31:07.450Z,11.37
2018-06-12T09:33:35.493Z,11.67
2018-06-12T09:36:08.898Z,9.97
2018-06-12T09:38:36.726Z,9.90
2018-06-12T09:41:04.766Z,9.73
2018-06-12T09:43:32.820Z,9.33
2018-06-12T09:46:00.855Z,7.90
2018-06-12T09:48:28.878Z,10.60
2018-06-12T09:50:57.651Z,8.80
2018-06-12T09:53:25.726Z,9.13
2018-06-12T09:55:53.744Z,9.03
2018-06-12T09:58:21.803Z,6.73
2018-06-12T10:00:55.244Z,8.07
2018-06-12T10:03:23.266Z,9.00
2018-06-12T10:05:51.295Z,7.93
2018-06-12T10:08:19.335Z,8.77
2018-06-12T10:10:47.351Z,9.03
2018-06-12T10:13:15.389Z,8.70
2018-06-12T10:15:43.448Z,7.20
2018-06-12T10:18:11.483Z,6.60
2018-06-12T10:20:39.527Z,5.67
2018-06-12T10:23:07.575Z,5.90
2018-06-12T10:25:35.598Z,8.55
2018-06-12T10:28:03.625Z,8.73
2018-06-12T10:30:31.646Z,8.25
2018-06-12T10:32:59.662Z,7.83
2018-06-12T10:35:27.687Z,8.60
2018-06-12T10:37:55.763Z,8.40
2018-06-12T10:40:23.792Z,8.10
2018-06-12T10:42:51.814Z,11.00
2018-06-12T10:45:19.843Z,9.95
2018-06-12T10:50:15.235Z,9.45
2018-06-12T10:55:10.667Z,9.57
2018-06-12T10:57:38.725Z,14.95
2018-06-12T11:02:34.187Z,24.50
2018-06-12T11:05:02.202Z,25.97
2018-06-12T11:07:30.243Z,14.63
2018-06-12T11:09:58.327Z,7.03
2018-06-12T11:12:26.351Z,7.30
2018-06-12T11:14:54.381Z,10.57
2018-06-12T11:17:22.438Z,7.23
2018-06-12T11:19:50.473Z,8.67
2018-06-12T11:22:18.563Z,9.63
2018-06-12T11:27:14.025Z,17.97
2018-06-12T11:29:41.990Z,19.87
2018-06-12T11:32:09.810Z,32.87
2018-06-12T11:34:37.839Z,26.23
2018-06-12T11:37:05.870Z,24.37
2018-06-12T11:42:01.275Z,31.87
2018-06-12T11:44:29.306Z,39.03
2018-06-12T11:51:52.098Z,56.67
2018-06-12T11:54:20.119Z,51.57
2018-06-12T11:56:48.154Z,66.90
2018-06-12T11:59:15.957Z,59.07
2018-06-12T12:01:43.990Z,55.73
2018-06-12T12:04:12.030Z,62.63
2018-06-12T12:06:40.072Z,75.53
2018-06-12T12:11:36.801Z,92.63
2018-06-12T12:14:04.913Z,92.63
2018-06-12T12:16:33.142Z,79.63
2018-06-12T12:21:28.674Z,98.30
2018-06-12T12:23:56.703Z,99.47
2018-06-12T12:26:24.730Z,108.53
2018-06-12T12:28:52.750Z,101.70
2018-06-12T12:31:20.790Z,87.10
2018-06-12T12:43:38.364Z,71.53
2018-06-12T12:46:06.351Z,106.30
2018-06-12T12:48:34.375Z,90.00
2018-06-12T12:51:02.399Z,98.13
2018-06-12T12:53:30.438Z,116.60
2018-06-12T12:58:25.630Z,106.60
2018-06-12T13:00:53.662Z,120.83
2018-06-12T13:03:21.691Z,108.60
2018-06-12T13:05:49.769Z,98.73
2018-06-12T13:08:17.828Z,133.70
2018-06-12T13:10:45.791Z,139.43
2018-06-12T13:13:13.815Z,100.60
2018-06-12T13:15:41.846Z,109.70
2018-06-12T13:18:09.675Z,86.40
2018-06-12T13:20:37.716Z,76.20
2018-06-12T13:23:05.747Z,87.53
2018-06-12T13:25:33.775Z,94.57
2018-06-12T13:28:01.591Z,62.17
2018-06-12T13:30:29.415Z,77.43
2018-06-12T13:32:57.230Z,72.67
2018-06-12T13:35:25.121Z,78.10
2018-06-12T13:37:52.939Z,54.13
2018-06-12T13:40:20.766Z,51.23
2018-06-12T13:42:48.582Z,71.63
2018-06-12T13:45:16.399Z,62.63
2018-06-12T13:47:44.227Z,63.03
2018-06-12T13:50:12.054Z,63.03
2018-06-12T13:52:39.984Z,42.10
2018-06-12T13:55:07.804Z,30.57
2018-06-12T13:57:35.622Z,46.83
2018-06-12T14:00:04.054Z,43.40
2018-06-12T14:02:31.869Z,48.20
2018-06-12T14:04:59.686Z,55.77
2018-06-12T14:07:27.517Z,53.33
2018-06-12T14:09:55.354Z,47.37
2018-06-12T14:12:23.165Z,54.83
2018-06-12T14:14:50.990Z,67.23
2018-06-12T14:17:18.824Z,73.73
2018-06-12T14:19:46.646Z,62.17
2018-06-12T14:22:14.454Z,83.60
2018-06-12T14:24:42.338Z,82.37
2018-06-12T14:27:10.154Z,72.70
2018-06-12T14:29:37.977Z,87.20
2018-06-12T14:32:05.814Z,101.37
2018-06-12T14:34:33.622Z,91.63
2018-06-12T14:37:01.446Z,79.07
2018-06-12T14:39:29.262Z,73.13
2018-06-12T14:41:57.289Z,89.23
2018-06-12T14:44:25.326Z,78.37
2018-06-12T14:46:53.350Z,81.63
2018-06-12T14:49:21.387Z,85.63
2018-06-12T14:51:49.443Z,101.23
2018-06-12T14:54:17.490Z,55.77
2018-06-12T14:56:45.508Z,60.33
2018-06-12T14:59:13.556Z,63.53
2018-06-12T15:01:41.547Z,50.77
2018-06-12T15:04:09.593Z,46.97
2018-06-12T15:06:37.639Z,65.73
2018-06-12T15:09:07.302Z,53.53
2018-06-12T15:11:35.462Z,45.60
2018-06-12T15:14:03.535Z,49.70
2018-06-12T15:16:31.366Z,51.20
2018-06-12T15:18:59.420Z,33.40
2018-06-12T15:21:27.437Z,31.27
2018-06-12T15:23:55.474Z,33.53
2018-06-12T15:26:23.493Z,27.03
2018-06-12T15:28:51.523Z,27.57
2018-06-12T15:31:19.555Z,21.73
2018-06-12T15:33:47.587Z,25.53
2018-06-12T15:36:15.614Z,35.03
2018-06-12T15:38:43.644Z,22.13
2018-06-12T15:41:11.664Z,25.73
2018-06-12T15:43:39.691Z,21.03
2018-06-12T15:46:07.493Z,19.17
2018-06-12T15:48:35.538Z,22.87
2018-06-12T15:51:03.574Z,19.33
2018-06-12T15:53:31.588Z,18.93
2018-06-12T15:55:59.639Z,18.00
2018-06-12T15:58:27.671Z,17.40
2018-06-12T16:00:55.691Z,15.33
2018-06-12T16:03:23.727Z,14.90
2018-06-12T16:05:51.746Z,14.33
2018-06-12T16:08:19.776Z,13.47
2018-06-12T16:10:47.811Z,14.10
2018-06-12T16:13:15.835Z,16.20
2018-06-12T16:15:43.855Z,15.93
2018-06-12T16:18:11.899Z,14.77
2018-06-12T16:20:39.935Z,14.63
2018-06-12T16:23:07.958Z,14.07
2018-06-12T16:25:35.994Z,15.15
2018-06-12T16:28:04.019Z,15.17
2018-06-12T16:30:32.038Z,13.50
2018-06-12T16:35:27.438Z,12.80
2018-06-12T16:37:55.467Z,12.80
2018-06-12T16:40:23.488Z,13.87
2018-06-12T16:42:51.514Z,13.33
2018-06-12T16:45:19.550Z,13.27
2018-06-12T16:47:47.578Z,13.60
2018-06-12T16:50:15.602Z,14.13
2018-06-12T16:52:43.620Z,13.03
2018-06-12T16:55:11.450Z,12.17
2018-06-12T16:57:39.479Z,12.43
2018-06-12T17:00:07.502Z,13.27
2018-06-12T17:02:35.526Z,12.00
2018-06-12T17:05:03.550Z,14.70
2018-06-12T17:07:31.577Z,14.17
2018-06-12T17:09:59.598Z,13.67
2018-06-12T17:12:27.634Z,13.73
2018-06-12T17:14:55.663Z,13.37
2018-06-12T17:17:23.695Z,16.40
2018-06-12T17:19:51.723Z,13.70
2018-06-12T17:22:19.755Z,14.23
2018-06-12T17:24:47.779Z,12.40
2018-06-12T17:27:15.806Z,13.97
2018-06-12T17:29:43.830Z,13.43
2018-06-12T17:32:11.854Z,14.40
2018-06-12T17:34:39.915Z,11.20
2018-06-12T17:37:07.952Z,9.07
2018-06-12T17:42:03.338Z,26.03
2018-06-12T17:44:31.389Z,5.60
2018-06-12T17:49:26.812Z,44.67
2018-06-12T17:51:54.835Z,61.30
2018-06-12T17:54:22.854Z,12.40
2018-06-12T17:56:50.898Z,7.47
2018-06-12T17:59:18.955Z,16.47
2018-06-12T18:01:46.983Z,10.33
2018-06-12T18:04:15.017Z,38.13
2018-06-12T18:06:43.047Z,98.40
2018-06-12T18:09:10.958Z,93.77
2018-06-12T18:11:38.990Z,82.47
2018-06-12T18:14:07.018Z,102.00
2018-06-12T18:16:35.055Z,105.57
2018-06-12T18:19:03.075Z,122.27
2018-06-12T18:21:31.110Z,146.33
2018-06-12T18:23:59.145Z,132.10
2018-06-12T18:26:27.182Z,134.77
2018-06-12T18:28:55.210Z,107.17
2018-06-12T18:31:23.268Z,102.47
2018-06-12T18:33:51.294Z,105.97
2018-06-12T18:36:19.740Z,112.23
2018-06-12T18:38:47.733Z,110.97
2018-06-12T18:41:15.742Z,108.03
2018-06-12T18:43:43.810Z,105.17
2018-06-12T18:46:11.830Z,111.43
2018-06-12T18:48:39.875Z,105.10
2018-06-12T18:51:07.919Z,115.30
2018-06-12T18:53:35.965Z,99.57
2018-06-12T18:56:03.994Z,106.40
2018-06-12T18:58:32.039Z,98.20
2018-06-12T19:01:00.097Z,94.60
2018-06-12T19:03:28.129Z,99.17
2018-06-12T19:05:56.171Z,103.50
2018-06-12T19:08:24.194Z,115.50
2018-06-12T19:10:52.243Z,126.50
2018-06-12T19:13:20.311Z,123.90
2018-06-12T19:15:48.359Z,108.75
2018-06-12T19:18:16.410Z,110.00
2018-06-12T19:20:44.450Z,115.00
2018-06-12T19:23:12.487Z,110.33
2018-06-12T19:25:40.307Z,92.90
2018-06-12T19:28:08.359Z,101.57
2018-06-12T19:30:36.399Z,100.37
2018-06-12T19:33:04.438Z,98.97
2018-06-12T19:35:32.480Z,106.83
2018-06-12T19:38:00.518Z,117.93
2018-06-12T19:40:28.340Z,97.07
2018-06-12T19:42:56.375Z,112.47
2018-06-12T19:45:24.407Z,132.80
2018-06-12T19:50:19.826Z,125.40
2018-06-12T20:05:04.535Z,146.70
2018-06-12T20:14:54.654Z,110.00
2018-06-12T20:37:01.812Z,141.30
2018-06-12T20:39:29.859Z,107.70
2018-06-12T20:56:42.018Z,89.10
2018-06-12T21:01:37.467Z,87.77
2018-06-12T21:06:32.903Z,92.00
2018-06-12T21:09:00.942Z,81.57
2018-06-12T21:11:28.995Z,80.20
2018-06-12T21:13:57.051Z,79.10
2018-06-12T21:33:36.806Z,87.80
2018-06-12T21:36:04.919Z,81.05
2018-06-12T21:38:32.950Z,69.95
2018-06-12T21:43:28.574Z,41.00
2018-06-12T21:45:56.595Z,50.20
2018-06-12T22:03:08.907Z,46.70
2018-06-12T22:20:22.282Z,37.65
2018-06-12T22:37:34.344Z,34.33
2018-06-12T22:40:02.354Z,33.93
2018-06-12T22:42:30.390Z,38.23
2018-06-12T22:44:58.423Z,34.90
2018-06-12T23:04:38.158Z,31.40
2018-06-12T23:07:06.171Z,27.70
2018-06-12T23:12:01.662Z,26.57
2018-06-12T23:14:29.748Z,27.50
2018-06-12T23:16:57.810Z,27.37
2018-06-12T23:19:25.795Z,21.23
2018-06-12T23:22:00.377Z,29.60
2018-06-12T23:24:28.411Z,24.97
2018-06-12T23:26:56.447Z,23.20
2018-06-12T23:29:24.481Z,20.33
2018-06-12T23:49:04.110Z,18.70
2018-06-12T23:56:26.887Z,18.50
